Eagle County Regional Airport
KEGE : now visible

Airfield :











YOU CAN JOIN US ON...

 
LOGIN :

Register | Disclaimer

   EN    FR    IT 

 









Legend :    VFR   Marginal VFR   IFR   Intensive IFR   Very Intensive IFR
Visi :
Ceiling :
>= 8 km
>= 3000ft
5 to 8 km
1000 to 3000 ft
1500m to 5 km
500 to 1000 ft
800 to 1500m
200 to 500 ft
< 800m
< 200 ft
Symbols :   Thunderstorms  Fog  Heavy snow  Heavy precipitations  Wind > 20 kt






- Airport Elevation : 6548 ft
- IATA code : EGE


KEGE - Eagle County Regional

CURRENT METAR :
  • 262056Z 26003KT 10SM FEW100 M03/M09 A2965 RMK AO2 SLP109 T10331094 56016

EXPIRED METARs :
  • 261956Z 24003KT 10SM OVC060 M06/M11 A2966 RMK AO2 SLP119 T10561106
  • 261856Z 26005KT 10SM SCT090 M08/M12 A2969 RMK AO2 SLP132 T10781117

TAF KEGE
Valid from the 26 at 18:00 until the 27 at 18:00 UTC


261740Z 2618/2718 VRB03KT P6SM VCSH SCT035 BKN050
FM262000 26007KT P6SM VCSH BKN030 OVC050
TEMPO 2620/2624 3SM -SN BR OVC030
FM270000 24005KT P6SM VCSH SCT027 BKN035
FM270300 10005KT P6SM FEW040 SCT050
KZDV FIR / North America



MET'MAP, your aeronautical weather chart ! - Copyright ORBIFLY December 2007 - Disclaimer

ORBIFLY MET'MAP TEAM :

Programming & Development : Alexandra Zaïnal
Concept & original design : Baudouin d'Aumeries
Assistance for programming : Marc-Olivier Méhu
Technical & hardware support : Manuel Goepfert

Contact : metmap@orbifly.com




SOURCES & CREDITS :

   NOAA       Earth
Advisory